Map

Track Data

SID SEASON NUMBER BASIN SUBBASIN NAME ISO_TIME NATURE LAT LON WMO_WIND WMO_PRES WMO_AGENCY TRACK_TYPE DIST2LAND LANDFALL IFLAG USA_AGENCY USA_ATCF_ID USA_LAT USA_LON USA_RECORD USA_STATUS USA_WIND USA_PRES USA_SSHS USA_R34_NE USA_R34_SE USA_R34_SW USA_R34_NW USA_R50_NE USA_R50_SE USA_R50_SW USA_R50_NW USA_R64_NE USA_R64_SE USA_R64_SW USA_R64_NW USA_POCI USA_ROCI USA_RMW USA_EYE TOKYO_LAT TOKYO_LON TOKYO_GRADE TOKYO_WIND TOKYO_PRES TOKYO_R50_DIR TOKYO_R50_LONG TOKYO_R50_SHORT TOKYO_R30_DIR TOKYO_R30_LONG TOKYO_R30_SHORT TOKYO_LAND CMA_LAT CMA_LON CMA_CAT CMA_WIND CMA_PRES HKO_LAT HKO_LON HKO_CAT HKO_WIND HKO_PRES NEWDELHI_LAT NEWDELHI_LON NEWDELHI_GRADE NEWDELHI_WIND NEWDELHI_PRES NEWDELHI_CI NEWDELHI_DP NEWDELHI_POCI REUNION_LAT REUNION_LON REUNION_TYPE REUNION_WIND REUNION_PRES REUNION_TNUM REUNION_CI REUNION_RMW REUNION_R34_NE REUNION_R34_SE REUNION_R34_SW REUNION_R34_NW REUNION_R50_NE REUNION_R50_SE REUNION_R50_SW REUNION_R50_NW REUNION_R64_NE REUNION_R64_SE REUNION_R64_SW REUNION_R64_NW BOM_LAT BOM_LON BOM_TYPE BOM_WIND BOM_PRES BOM_TNUM BOM_CI BOM_RMW BOM_R34_NE BOM_R34_SE BOM_R34_SW BOM_R34_NW BOM_R50_NE BOM_R50_SE BOM_R50_SW BOM_R50_NW BOM_R64_NE BOM_R64_SE BOM_R64_SW BOM_R64_NW BOM_ROCI BOM_POCI BOM_EYE BOM_POS_METHOD BOM_PRES_METHOD NADI_LAT NADI_LON NADI_CAT NADI_WIND NADI_PRES WELLINGTON_LAT WELLINGTON_LON WELLINGTON_WIND WELLINGTON_PRES DS824_LAT DS824_LON DS824_STAGE DS824_WIND DS824_PRES TD9636_LAT TD9636_LON TD9636_STAGE TD9636_WIND TD9636_PRES TD9635_LAT TD9635_LON TD9635_WIND TD9635_PRES TD9635_ROCI NEUMANN_LAT NEUMANN_LON NEUMANN_CLASS NEUMANN_WIND NEUMANN_PRES MLC_LAT MLC_LON MLC_CLASS MLC_WIND MLC_PRES USA_GUST BOM_GUST BOM_GUST_PER REUNION_GUST REUNION_GUST_PER USA_SEAHGT USA_SEARAD_NE USA_SEARAD_SE USA_SEARAD_SW USA_SEARAD_NW STORM_SPEED STORM_DIR
1937282N10138 1937 55 WP MM NOT_NAMED 1937-10-08 21:00:00 NR 10.4000 137.700 main 1256 1243 __________O___ -1 10.4000 137.700 4 11 336
1937282N10138 1937 55 WP MM NOT_NAMED 1937-10-09 00:00:00 NR 10.9135 137.468 main 1249 1226 __________P___ -1 10.9135 137.468 4 11 333
1937282N10138 1937 55 WP MM NOT_NAMED 1937-10-09 03:00:00 NR 11.3716 137.199 main 1229 1203 __________P___ -1 11.3716 137.199 4 10 323
1937282N10138 1937 55 WP MM NOT_NAMED 1937-10-09 06:00:00 NR 11.7189 136.855 main 1203 1155 __________P___ -1 11.7189 136.855 4 9 304
1937282N10138 1937 55 WP MM NOT_NAMED 1937-10-09 09:00:00 NR 11.9000 136.400 main 1155 1103 __________O___ -1 11.9000 136.400 4 10 279
1937282N10138 1937 55 WP MM NOT_NAMED 1937-10-09 12:00:00 NR 11.8848 135.817 main 1092 1026 __________P___ -1 11.8848 135.817 4 12 263
1937282N10138 1937 55 WP MM NOT_NAMED 1937-10-09 15:00:00 NR 11.7465 135.168 main 1023 957 __________P___ -1 11.7465 135.168 4 13 257
1937282N10138 1937 55 WP MM NOT_NAMED 1937-10-09 18:00:00 NR 11.5848 134.535 main 947 891 __________P___ -1 11.5848 134.535 4 12 258
1937282N10138 1937 55 WP MM NOT_NAMED 1937-10-09 21:00:00 NR 11.5000 134.000 main 891 863 __________O___ -1 11.5000 134.000 4 8 274
1937282N10138 1937 55 WP MM NOT_NAMED 1937-10-10 00:00:00 NR 11.6389 133.676 main 863 844 __________P___ -1 11.6389 133.676 4 7 304
1937282N10138 1937 55 WP MM NOT_NAMED 1937-10-10 03:00:00 NR 11.8665 133.453 main 845 825 __________P___ -1 11.8665 133.453 4 6 322
1937282N10138 1937 55 WP MM NOT_NAMED 1937-10-10 06:00:00 NR 12.1359 133.279 main 826 808 __________P___ -1 12.1359 133.279 4 6 327
1937282N10138 1937 55 WP MM NOT_NAMED 1937-10-10 09:00:00 NR 12.4000 133.100 main 810 783 __________O___ -1 12.4000 133.100 4 6 316
1937282N10138 1937 55 WP MM NOT_NAMED 1937-10-10 12:00:00 NR 12.5935 132.827 main 783 764 __________P___ -1 12.5935 132.827 4 7 304
1937282N10138 1937 55 WP MM NOT_NAMED 1937-10-10 15:00:00 NR 12.7726 132.542 main 756 738 __________P___ -1 12.7726 132.542 4 7 302
1937282N10138 1937 55 WP MM NOT_NAMED 1937-10-10 18:00:00 NR 12.9404 132.262 main 738 712 __________P___ -1 12.9404 132.262 4 6 302
1937282N10138 1937 55 WP MM NOT_NAMED 1937-10-10 21:00:00 NR 13.1000 132.000 main 712 692 __________O___ -1 13.1000 132.000 4 5 302
1937282N10138 1937 55 WP MM NOT_NAMED 1937-10-11 00:00:00 NR 13.2203 131.802 main 692 673 __________P___ -1 13.2203 131.802 4 4 303
1937282N10138 1937 55 WP MM NOT_NAMED 1937-10-11 03:00:00 NR 13.3396 131.622 main 673 656 __________P___ -1 13.3396 131.622 4 5 307
1937282N10138 1937 55 WP MM NOT_NAMED 1937-10-11 06:00:00 NR 13.4890 131.430 main 656 640 __________P___ -1 13.4890 131.430 4 5 311
1937282N10138 1937 55 WP MM NOT_NAMED 1937-10-11 09:00:00 NR 13.7000 131.200 main 640 618 __________O___ -1 13.7000 131.200 4 8 315
1937282N10138 1937 55 WP MM NOT_NAMED 1937-10-11 12:00:00 NR 14.0309 130.874 main 618 594 __________P___ -1 14.0309 130.874 4 10 317
1937282N10138 1937 55 WP MM NOT_NAMED 1937-10-11 15:00:00 NR 14.4204 130.509 main 594 580 __________P___ -1 14.4204 130.509 4 11 318
1937282N10138 1937 55 WP MM NOT_NAMED 1937-10-11 18:00:00 NR 14.8247 130.139 main 576 569 __________P___ -1 14.8247 130.139 4 10 319
1937282N10138 1937 55 WP MM NOT_NAMED 1937-10-11 21:00:00 NR 15.2000 129.800 main 573 569 __________O___ -1 15.2000 129.800 4 9 319
1937282N10138 1937 55 WP MM NOT_NAMED 1937-10-12 00:00:00 NR 15.4774 129.546 main 568 564 __________P___ -1 15.4774 129.546 4 7 319
1937282N10138 1937 55 WP MM NOT_NAMED 1937-10-12 03:00:00 NR 15.7220 129.326 main 564 552 __________P___ -1 15.7220 129.326 4 6 319
1937282N10138 1937 55 WP MM NOT_NAMED 1937-10-12 06:00:00 NR 15.9556 129.118 main 557 547 __________P___ -1 15.9556 129.118 4 6 319
1937282N10138 1937 55 WP MM NOT_NAMED 1937-10-12 09:00:00 NR 16.2000 128.900 main 547 536 __________O___ -1 16.2000 128.900 4 8 320
1937282N10138 1937 55 WP MM NOT_NAMED 1937-10-12 12:00:00 NR 16.5264 128.611 main 536 529 __________P___ -1 16.5264 128.611 4 9 320
1937282N10138 1937 55 WP MM NOT_NAMED 1937-10-12 15:00:00 NR 16.8603 128.313 main 536 526 __________P___ -1 16.8603 128.313 4 8 319
1937282N10138 1937 55 WP MM NOT_NAMED 1937-10-12 18:00:00 NR 17.1640 128.033 main 534 533 __________P___ -1 17.1640 128.033 4 7 318
1937282N10138 1937 55 WP MM NOT_NAMED 1937-10-12 21:00:00 NR 17.4000 127.800 main 534 534 __________O___ -1 17.4000 127.800 4 5 317
1937282N10138 1937 55 WP MM NOT_NAMED 1937-10-13 00:00:00 NR 17.5215 127.682 main 534 527 __________P___ -1 17.5215 127.682 4 3 314
1937282N10138 1937 55 WP MM NOT_NAMED 1937-10-13 03:00:00 NR 17.5744 127.607 main 535 528 __________P___ -1 17.5744 127.607 4 2 295
1937282N10138 1937 55 WP MM NOT_NAMED 1937-10-13 06:00:00 NR 17.5902 127.529 main 528 521 __________P___ -1 17.5902 127.529 4 2 277
1937282N10138 1937 55 WP MM NOT_NAMED 1937-10-13 09:00:00 NR 17.6000 127.400 main 521 494 __________O___ -1 17.6000 127.400 4 4 280
1937282N10138 1937 55 WP MM NOT_NAMED 1937-10-13 12:00:00 NR 17.6545 127.129 main 494 463 __________P___ -1 17.6545 127.129 4 6 281
1937282N10138 1937 55 WP MM NOT_NAMED 1937-10-13 15:00:00 NR 17.7081 126.808 main 463 431 __________P___ -1 17.7081 126.808 4 6 279
1937282N10138 1937 55 WP MM NOT_NAMED 1937-10-13 18:00:00 NR 17.7576 126.482 main 433 402 __________P___ -1 17.7576 126.482 4 6 279
1937282N10138 1937 55 WP MM NOT_NAMED 1937-10-13 21:00:00 NR 17.8000 126.200 main 402 382 __________O___ -1 17.8000 126.200 4 4 275
1937282N10138 1937 55 WP MM NOT_NAMED 1937-10-14 00:00:00 NR 17.7994 126.016 main 382 371 __________P___ -1 17.7994 126.016 4 3 269
1937282N10138 1937 55 WP MM NOT_NAMED 1937-10-14 03:00:00 NR 17.7972 125.882 main 371 361 __________P___ -1 17.7972 125.882 4 2 276
1937282N10138 1937 55 WP MM NOT_NAMED 1937-10-14 06:00:00 NR 17.8214 125.782 main 361 351 __________P___ -1 17.8214 125.782 4 2 301
1937282N10138 1937 55 WP MM NOT_NAMED 1937-10-14 09:00:00 NR 17.9000 125.700 main 354 347 __________O___ -1 17.9000 125.700 4 3 327
1937282N10138 1937 55 WP MM NOT_NAMED 1937-10-14 12:00:00 NR 18.0715 125.611 main 349 337 __________P___ -1 18.0715 125.611 4 4 338
1937282N10138 1937 55 WP MM NOT_NAMED 1937-10-14 15:00:00 NR 18.2975 125.535 main 337 337 __________P___ -1 18.2975 125.535 4 5 344
1937282N10138 1937 55 WP MM NOT_NAMED 1937-10-14 18:00:00 NR 18.5497 125.467 main 337 327 __________P___ -1 18.5497 125.467 4 5 346
1937282N10138 1937 55 WP MM NOT_NAMED 1937-10-14 21:00:00 NR 18.8000 125.400 main 329 321 __________O___ -1 18.8000 125.400 4 5 342
1937282N10138 1937 55 WP MM NOT_NAMED 1937-10-15 00:00:00 NR 18.9747 125.317 main 323 315 __________P___ -1 18.9747 125.317 4 4 336
1937282N10138 1937 55 WP MM NOT_NAMED 1937-10-15 03:00:00 NR 19.1475 125.235 main 315 315 __________P___ -1 19.1475 125.235 4 4 339
1937282N10138 1937 55 WP MM NOT_NAMED 1937-10-15 06:00:00 NR 19.3466 125.161 main 321 315 __________P___ -1 19.3466 125.161 4 5 344
1937282N10138 1937 55 WP MM NOT_NAMED 1937-10-15 09:00:00 NR 19.6000 125.100 main 323 323 __________O___ -1 19.6000 125.100 4 6 348
1937282N10138 1937 55 WP MM NOT_NAMED 1937-10-15 12:00:00 NR 19.9749 125.016 main 335 335 __________P___ -1 19.9749 125.016 4 8 350
1937282N10138 1937 55 WP MM NOT_NAMED 1937-10-15 15:00:00 NR 20.3998 124.953 main 360 352 __________P___ -1 20.3998 124.953 4 9 356
1937282N10138 1937 55 WP MM NOT_NAMED 1937-10-15 18:00:00 NR 20.8248 124.938 main 382 382 __________P___ -1 20.8248 124.938 4 8 3
1937282N10138 1937 55 WP MM NOT_NAMED 1937-10-15 21:00:00 NR 21.2000 125.000 main 421 421 __________O___ -1 21.2000 125.000 4 6 17
1937282N10138 1937 55 WP MM NOT_NAMED 1937-10-16 00:00:00 NR 21.4327 125.131 main 425 420 __________P___ -1 21.4327 125.131 4 5 38
1937282N10138 1937 55 WP MM NOT_NAMED 1937-10-16 03:00:00 NR 21.6143 125.344 main 434 434 __________P___ -1 21.6143 125.344 4 6 53
1937282N10138 1937 55 WP MM NOT_NAMED 1937-10-16 06:00:00 NR 21.7888 125.635 main 455 455 __________P___ -1 21.7888 125.635 4 7 58
1937282N10138 1937 55 WP MM NOT_NAMED 1937-10-16 09:00:00 NR 22.0000 126.000 main 487 487 __________O___ -1 22.0000 126.000 4 9 52
1937282N10138 1937 55 WP MM NOT_NAMED 1937-10-16 12:00:00 NR 22.3601 126.426 main 515 515 __________P___ -1 22.3601 126.426 4 11 49
1937282N10138 1937 55 WP MM NOT_NAMED 1937-10-16 15:00:00 NR 22.7530 126.922 main 543 543 __________P___ -1 22.7530 126.922 4 12 51
1937282N10138 1937 55 WP MM NOT_NAMED 1937-10-16 18:00:00 NR 23.1194 127.457 main 590 587 __________P___ -1 23.1194 127.457 4 12 57
1937282N10138 1937 55 WP MM NOT_NAMED 1937-10-16 21:00:00 NR 23.4000 128.000 main 631 631 __________O___ -1 23.4000 128.000 4 10 66
1937282N10138 1937 55 WP MM NOT_NAMED 1937-10-17 00:00:00 NR 23.5156 128.421 main 669 669 __________P___ -1 23.5156 128.421 4 8 80
1937282N10138 1937 55 WP MM NOT_NAMED 1937-10-17 03:00:00 NR 23.5429 128.853 main 718 718 __________P___ -1 23.5429 128.853 4 9 89
1937282N10138 1937 55 WP MM NOT_NAMED 1937-10-17 06:00:00 NR 23.5240 129.358 main 768 768 __________P___ -1 23.5240 129.358 4 11 92
1937282N10138 1937 55 WP MM NOT_NAMED 1937-10-17 09:00:00 NR 23.5000 130.000 main 827 827 __________O___ -1 23.5000 130.000 4 15 91
1937282N10138 1937 55 WP MM NOT_NAMED 1937-10-17 12:00:00 NR 23.4897 130.955 main 838 838 __________P___ -1 23.4897 130.955 4 19 91
1937282N10138 1937 55 WP MM NOT_NAMED 1937-10-17 15:00:00 NR 23.4828 132.032 main 847 847 __________P___ -1 23.4828 132.032 4 20 89
1937282N10138 1937 55 WP MM NOT_NAMED 1937-10-17 18:00:00 NR 23.5085 133.093 main 870 870 __________P___ -1 23.5085 133.093 4 18 86
1937282N10138 1937 55 WP MM NOT_NAMED 1937-10-17 21:00:00 NR 23.6000 134.000 main 888 885 __________O___ -1 23.6000 134.000 4 14 78
1937282N10138 1937 55 WP MM NOT_NAMED 1937-10-18 00:00:00 NR 23.7911 134.576 main 891 884 __________P___ -1 23.7911 134.576 4 10 63
1937282N10138 1937 55 WP MM NOT_NAMED 1937-10-18 03:00:00 NR 24.0554 134.987 main 878 869 __________P___ -1 24.0554 134.987 4 9 49
1937282N10138 1937 55 WP MM NOT_NAMED 1937-10-18 06:00:00 NR 24.3672 135.305 main 864 852 __________P___ -1 24.3672 135.305 4 9 41
1937282N10138 1937 55 WP MM NOT_NAMED 1937-10-18 09:00:00 NR 24.7000 135.600 main 852 839 __________O___ -1 24.7000 135.600 4 9 44
1937282N10138 1937 55 WP MM NOT_NAMED 1937-10-18 12:00:00 NR 25.0021 135.979 main 844 832 __________P___ -1 25.0021 135.979 4 9 48
1937282N10138 1937 55 WP MM NOT_NAMED 1937-10-18 15:00:00 NR 25.3194 136.351 main 837 822 __________P___ -1 25.3194 136.351 4 9 46
1937282N10138 1937 55 WP MM NOT_NAMED 1937-10-18 18:00:00 NR 25.6521 136.723 main 819 817 __________P___ -1 25.6521 136.723 4 10 45
1937282N10138 1937 55 WP MM NOT_NAMED 1937-10-18 21:00:00 NR 26.0000 137.100 main 819 807 __________O___ -1 26.0000 137.100 4 10 45
1937282N10138 1937 55 WP MM NOT_NAMED 1937-10-19 00:00:00 NR 26.3194 137.475 main 809 782 __________P___ -1 26.3194 137.475 4 9 46
1937282N10138 1937 55 WP MM NOT_NAMED 1937-10-19 03:00:00 NR 26.6591 137.859 main 774 750 __________P___ -1 26.6591 137.859 4 10 44
1937282N10138 1937 55 WP MM NOT_NAMED 1937-10-19 06:00:00 NR 27.0443 138.263 main 753 714 __________P___ -1 27.0443 138.263 4 11 42
1937282N10138 1937 55 WP MM NOT_NAMED 1937-10-19 09:00:00 NR 27.5000 138.700 main 714 674 __________O___ -1 27.5000 138.700 4 13 38
1937282N10138 1937 55 WP MM NOT_NAMED 1937-10-19 12:00:00 NR 28.1020 139.191 main 674 636 __________P___ -1 28.1020 139.191 4 16 35
1937282N10138 1937 55 WP MM NOT_NAMED 1937-10-19 15:00:00 NR 28.7652 139.716 main 632 594 __________P___ -1 28.7652 139.716 4 16 35
1937282N10138 1937 55 WP MM NOT_NAMED 1937-10-19 18:00:00 NR 29.4207 140.259 main 596 546 __________P___ -1 29.4207 140.259 4 16 37
1937282N10138 1937 55 WP MM NOT_NAMED 1937-10-19 21:00:00 NR 30.0000 140.800 main 546 516 __________O___ -1 30.0000 140.800 4 13 41
1937282N10138 1937 55 WP MM NOT_NAMED 1937-10-20 00:00:00 NR 30.3710 141.230 main 516 494 __________P___ -1 30.3710 141.230 4 10 48
1937282N10138 1937 55 WP MM NOT_NAMED 1937-10-20 03:00:00 NR 30.6667 141.662 main 497 487 __________P___ -1 30.6667 141.662 4 10 54
1937282N10138 1937 55 WP MM NOT_NAMED 1937-10-20 06:00:00 NR 30.9542 142.162 main 484 478 __________P___ -1 30.9542 142.162 4 12 57
1937282N10138 1937 55 WP MM NOT_NAMED 1937-10-20 09:00:00 NR 31.3000 142.800 main 483 479 __________O___ -1 31.3000 142.800 4 15 58
1937282N10138 1937 55 WP MM NOT_NAMED 1937-10-20 12:00:00 NR 31.7450 143.637 main 489 483 __________P___ -1 31.7450 143.637 4 18 58
1937282N10138 1937 55 WP MM NOT_NAMED 1937-10-20 15:00:00 NR 32.2573 144.625 main 504 504 __________P___ -1 32.2573 144.625 4 21 58
1937282N10138 1937 55 WP MM NOT_NAMED 1937-10-20 18:00:00 NR 32.8406 145.725 main 546 546 __________P___ -1 32.8406 145.725 4 23 57
1937282N10138 1937 55 WP MM NOT_NAMED 1937-10-20 21:00:00 NR 33.5000 146.900 main 600 600 __________O___ -1 33.5000 146.900 4 24 55
1937282N10138 1937 55 WP MM NOT_NAMED 1937-10-21 00:00:00 NR 34.2368 148.119 main 675 675 __________P___ -1 34.2368 148.119 4 26 53
1937282N10138 1937 55 WP MM NOT_NAMED 1937-10-21 03:00:00 NR 35.0322 149.377 main 772 771 __________P___ -1 35.0322 149.377 4 26 52
1937282N10138 1937 55 WP MM NOT_NAMED 1937-10-21 06:00:00 NR 35.8616 150.672 main 853 853 __________P___ -1 35.8616 150.672 4 27 52
1937282N10138 1937 55 WP MM NOT_NAMED 1937-10-21 09:00:00 NR 36.7000 152.000 main 909 __________O___ -1 36.7000 152.000 4 27 52

Digital Typhoon Data and Search

About IBTrACS Database

This database is a web-friendly format of International Best Track Archive for Climate Stewardship (IBTrACS), a global best track data archive curated by NOAA dating back to 1842.

Updated: 2021-10-27